Portada
METAR-TAF:

METAR-TAF

Aeroports :

Hua Hin, Tailàndia

latitud: 12-35N, longitud: 099-57E, altitud: 5 m

Observació

L'informe es va fer fa 20 minuts, a les 08:00 UTC
Vent 9 kt del Oest, variant entre Sud/Sud-Est i Nord/Nord-Oest
Temperatura 34°C
Humitat 50%
Pressió 1004 hPa
Visibilitat 10 km o més
Escasses núvols a una alçada de 3000 ft

METAR: VTPH 020800Z 27009KT 160V330 9999 FEW030 34/22 Q1004 NOSIG

Hora: 15:20 (08:20 UTC)

Pronòstic

L'informe es va fer fa 3 hores i 20 minuts, a les 05:00 UTC
Pronòstic vàlid del 02 a les 06 UTC al 03 a les 06 UTC
Vent 8 kt del Sud/Sud-Est
Visibilitat 10 km o més
Escasses núvols a una alçada de 3000 ft
Núvols disperses a una alçada de 10000 ft
Evolucionant progressivament
l' 02 a les 12 UTC al 02 a les 14 UTC
Vent 5 kt del Oest/Sud-Oest
Evolucionant progressivament
l' 03 a les 02 UTC al 03 a les 04 UTC
Vent 8 kt del Sud/Sud-Est

TAF: VTPH 020500Z 0206/0306 15008KT 9999 FEW030 SCT100 BECMG 0212/0214 24005KT BECMG 0302/0304 15008KT

Observacions i pronòstics meteorològics de més de 4000 aeroports (METAR i TAF).

Les estacions disponibles són els punts grocs i vermells al mapa.

Posi el ratolí al punt desitjat per veure el nom de l'estació.

Feu clic per veure les observacions i els pronòstics meteorològics.

Per canviar el mapa: feu clic els botons verds amb una creu de color negre per apropar; al botó verd amb un guió per allunyar la imatge; o en les fletxes verdes per a mapes adjacents.


METAR-TAF: